sensor_id;sensor_type;location;lat;lon;timestamp;P1;durP1;ratioP1;P2;durP2;ratioP2
19651;SDS011;9974;52.146;14.668;2023-04-24T00:00:14;7.55;;;6.13;;
19651;SDS011;9974;52.146;14.668;2023-04-24T00:02:41;8.32;;;6.60;;
19651;SDS011;9974;52.146;14.668;2023-04-24T00:05:12;9.90;;;7.03;;
19651;SDS011;9974;52.146;14.668;2023-04-24T00:07:38;10.75;;;7.22;;
19651;SDS011;9974;52.146;14.668;2023-04-24T00:10:05;8.57;;;6.80;;
19651;SDS011;9974;52.146;14.668;2023-04-24T00:12:32;9.27;;;6.80;;
19651;SDS011;9974;52.146;14.668;2023-04-24T00:14:58;7.97;;;6.38;;
19651;SDS011;9974;52.146;14.668;2023-04-24T00:17:24;10.63;;;6.80;;
19651;SDS011;9974;52.146;14.668;2023-04-24T00:19:50;9.38;;;6.50;;
19651;SDS011;9974;52.146;14.668;2023-04-24T00:22:23;10.45;;;7.13;;
19651;SDS011;9974;52.146;14.668;2023-04-24T00:24:52;10.02;;;6.50;;
19651;SDS011;9974;52.146;14.668;2023-04-24T00:27:18;10.88;;;7.70;;
19651;SDS011;9974;52.146;14.668;2023-04-24T00:29:44;16.77;;;7.22;;
19651;SDS011;9974;52.146;14.668;2023-04-24T00:32:11;9.55;;;7.60;;
19651;SDS011;9974;52.146;14.668;2023-04-24T00:34:37;9.82;;;7.53;;
19651;SDS011;9974;52.146;14.668;2023-04-24T00:37:02;10.48;;;6.68;;
19651;SDS011;9974;52.146;14.668;2023-04-24T00:39:29;9.60;;;7.20;;
19651;SDS011;9974;52.146;14.668;2023-04-24T00:41:55;9.30;;;7.47;;
19651;SDS011;9974;52.146;14.668;2023-04-24T00:44:21;10.05;;;7.22;;
19651;SDS011;9974;52.146;14.668;2023-04-24T00:46:48;10.52;;;7.15;;
19651;SDS011;9974;52.146;14.668;2023-04-24T00:49:19;10.27;;;7.20;;
19651;SDS011;9974;52.146;14.668;2023-04-24T00:51:46;9.70;;;7.50;;
19651;SDS011;9974;52.146;14.668;2023-04-24T00:54:12;10.40;;;7.78;;
19651;SDS011;9974;52.146;14.668;2023-04-24T00:56:40;10.52;;;7.30;;
19651;SDS011;9974;52.146;14.668;2023-04-24T00:59:07;12.90;;;6.97;;
19651;SDS011;9974;52.146;14.668;2023-04-24T01:01:33;9.55;;;7.20;;
19651;SDS011;9974;52.146;14.668;2023-04-24T01:03:59;9.77;;;7.70;;
19651;SDS011;9974;52.146;14.668;2023-04-24T01:06:29;9.05;;;7.30;;
19651;SDS011;9974;52.146;14.668;2023-04-24T01:08:56;10.15;;;7.78;;
19651;SDS011;9974;52.146;14.668;2023-04-24T01:11:23;8.65;;;7.13;;
19651;SDS011;9974;52.146;14.668;2023-04-24T01:13:50;9.93;;;7.32;;
19651;SDS011;9974;52.146;14.668;2023-04-24T01:16:16;9.80;;;7.55;;
19651;SDS011;9974;52.146;14.668;2023-04-24T01:18:44;9.65;;;7.43;;
19651;SDS011;9974;52.146;14.668;2023-04-24T01:21:10;10.95;;;7.65;;
19651;SDS011;9974;52.146;14.668;2023-04-24T01:23:39;11.55;;;7.93;;
19651;SDS011;9974;52.146;14.668;2023-04-24T01:26:05;9.15;;;7.95;;
19651;SDS011;9974;52.146;14.668;2023-04-24T01:28:31;12.02;;;7.47;;
19651;SDS011;9974;52.146;14.668;2023-04-24T01:30:57;9.45;;;7.55;;
19651;SDS011;9974;52.146;14.668;2023-04-24T01:33:24;10.20;;;7.60;;
19651;SDS011;9974;52.146;14.668;2023-04-24T01:35:50;8.80;;;7.50;;
19651;SDS011;9974;52.146;14.668;2023-04-24T01:38:16;9.68;;;7.40;;
19651;SDS011;9974;52.146;14.668;2023-04-24T01:40:42;11.43;;;7.80;;
19651;SDS011;9974;52.146;14.668;2023-04-24T01:43:08;10.15;;;7.75;;
19651;SDS011;9974;52.146;14.668;2023-04-24T01:45:34;10.20;;;8.02;;
19651;SDS011;9974;52.146;14.668;2023-04-24T01:48:00;10.93;;;8.65;;
19651;SDS011;9974;52.146;14.668;2023-04-24T01:50:26;11.63;;;8.93;;
19651;SDS011;9974;52.146;14.668;2023-04-24T01:52:52;11.10;;;8.02;;
19651;SDS011;9974;52.146;14.668;2023-04-24T01:55:18;11.10;;;9.05;;
19651;SDS011;9974;52.146;14.668;2023-04-24T01:57:44;11.45;;;8.27;;
19651;SDS011;9974;52.146;14.668;2023-04-24T02:00:11;10.88;;;7.80;;
19651;SDS011;9974;52.146;14.668;2023-04-24T02:02:37;11.23;;;8.23;;
19651;SDS011;9974;52.146;14.668;2023-04-24T02:05:05;11.80;;;8.82;;
19651;SDS011;9974;52.146;14.668;2023-04-24T02:07:33;11.32;;;8.40;;
19651;SDS011;9974;52.146;14.668;2023-04-24T02:09:59;9.70;;;8.13;;
19651;SDS011;9974;52.146;14.668;2023-04-24T02:12:25;11.70;;;8.38;;
19651;SDS011;9974;52.146;14.668;2023-04-24T02:14:51;12.18;;;8.70;;
19651;SDS011;9974;52.146;14.668;2023-04-24T02:17:16;12.88;;;8.82;;
19651;SDS011;9974;52.146;14.668;2023-04-24T02:19:44;12.52;;;8.85;;
19651;SDS011;9974;52.146;14.668;2023-04-24T02:22:10;11.07;;;8.18;;
19651;SDS011;9974;52.146;14.668;2023-04-24T02:24:36;10.13;;;7.72;;
19651;SDS011;9974;52.146;14.668;2023-04-24T02:27:03;11.45;;;8.52;;
19651;SDS011;9974;52.146;14.668;2023-04-24T02:29:29;12.23;;;8.15;;
19651;SDS011;9974;52.146;14.668;2023-04-24T02:31:55;12.07;;;9.00;;
19651;SDS011;9974;52.146;14.668;2023-04-24T02:34:21;10.30;;;8.15;;
19651;SDS011;9974;52.146;14.668;2023-04-24T02:36:48;12.40;;;9.73;;
19651;SDS011;9974;52.146;14.668;2023-04-24T02:39:14;11.57;;;9.80;;
19651;SDS011;9974;52.146;14.668;2023-04-24T02:41:41;13.23;;;9.40;;
19651;SDS011;9974;52.146;14.668;2023-04-24T02:44:08;12.02;;;10.02;;
19651;SDS011;9974;52.146;14.668;2023-04-24T02:46:34;14.40;;;10.15;;
19651;SDS011;9974;52.146;14.668;2023-04-24T02:49:00;13.73;;;10.88;;
19651;SDS011;9974;52.146;14.668;2023-04-24T02:51:27;14.82;;;11.00;;
19651;SDS011;9974;52.146;14.668;2023-04-24T02:53:53;13.45;;;10.30;;
19651;SDS011;9974;52.146;14.668;2023-04-24T02:56:19;16.33;;;9.75;;
19651;SDS011;9974;52.146;14.668;2023-04-24T02:58:45;13.02;;;10.52;;
19651;SDS011;9974;52.146;14.668;2023-04-24T03:01:11;12.32;;;9.75;;
19651;SDS011;9974;52.146;14.668;2023-04-24T03:03:38;13.30;;;10.25;;
19651;SDS011;9974;52.146;14.668;2023-04-24T03:06:04;10.77;;;9.35;;
19651;SDS011;9974;52.146;14.668;2023-04-24T03:08:33;11.30;;;8.65;;
19651;SDS011;9974;52.146;14.668;2023-04-24T03:10:59;12.45;;;9.20;;
19651;SDS011;9974;52.146;14.668;2023-04-24T03:13:26;10.45;;;8.43;;
19651;SDS011;9974;52.146;14.668;2023-04-24T03:15:51;12.77;;;9.55;;
19651;SDS011;9974;52.146;14.668;2023-04-24T03:18:17;10.45;;;8.70;;
19651;SDS011;9974;52.146;14.668;2023-04-24T03:20:45;11.57;;;9.02;;
19651;SDS011;9974;52.146;14.668;2023-04-24T03:23:12;10.35;;;8.57;;
19651;SDS011;9974;52.146;14.668;2023-04-24T03:25:38;13.05;;;9.55;;
19651;SDS011;9974;52.146;14.668;2023-04-24T03:28:04;11.13;;;9.00;;
19651;SDS011;9974;52.146;14.668;2023-04-24T03:30:30;13.25;;;9.05;;
19651;SDS011;9974;52.146;14.668;2023-04-24T03:32:56;12.35;;;8.80;;
19651;SDS011;9974;52.146;14.668;2023-04-24T03:35:22;11.77;;;8.95;;
19651;SDS011;9974;52.146;14.668;2023-04-24T03:37:48;12.90;;;8.60;;
19651;SDS011;9974;52.146;14.668;2023-04-24T03:40:14;14.73;;;9.52;;
19651;SDS011;9974;52.146;14.668;2023-04-24T03:42:40;11.35;;;8.52;;
19651;SDS011;9974;52.146;14.668;2023-04-24T03:45:07;11.32;;;8.73;;
19651;SDS011;9974;52.146;14.668;2023-04-24T03:47:33;9.38;;;7.85;;
19651;SDS011;9974;52.146;14.668;2023-04-24T03:49:59;11.60;;;8.75;;
19651;SDS011;9974;52.146;14.668;2023-04-24T03:52:25;12.05;;;8.52;;
19651;SDS011;9974;52.146;14.668;2023-04-24T03:54:51;10.13;;;7.90;;
19651;SDS011;9974;52.146;14.668;2023-04-24T03:57:17;9.02;;;8.13;;
19651;SDS011;9974;52.146;14.668;2023-04-24T03:59:43;9.65;;;8.65;;
19651;SDS011;9974;52.146;14.668;2023-04-24T04:02:09;10.63;;;8.80;;
19651;SDS011;9974;52.146;14.668;2023-04-24T04:04:35;9.68;;;8.15;;
19651;SDS011;9974;52.146;14.668;2023-04-24T04:07:01;13.30;;;9.85;;
19651;SDS011;9974;52.146;14.668;2023-04-24T04:09:27;10.32;;;8.27;;
19651;SDS011;9974;52.146;14.668;2023-04-24T04:11:54;12.32;;;8.73;;
19651;SDS011;9974;52.146;14.668;2023-04-24T04:14:20;12.60;;;8.40;;
19651;SDS011;9974;52.146;14.668;2023-04-24T04:16:46;14.98;;;9.45;;
19651;SDS011;9974;52.146;14.668;2023-04-24T04:19:12;12.05;;;9.65;;
19651;SDS011;9974;52.146;14.668;2023-04-24T04:21:38;11.80;;;10.07;;
19651;SDS011;9974;52.146;14.668;2023-04-24T04:24:04;11.45;;;9.93;;
19651;SDS011;9974;52.146;14.668;2023-04-24T04:26:32;11.00;;;8.95;;
19651;SDS011;9974;52.146;14.668;2023-04-24T04:28:58;12.57;;;9.77;;
19651;SDS011;9974;52.146;14.668;2023-04-24T04:31:25;12.18;;;9.73;;
19651;SDS011;9974;52.146;14.668;2023-04-24T04:33:51;11.68;;;10.10;;
19651;SDS011;9974;52.146;14.668;2023-04-24T04:36:17;13.48;;;9.50;;
19651;SDS011;9974;52.146;14.668;2023-04-24T04:38:43;12.23;;;9.85;;
19651;SDS011;9974;52.146;14.668;2023-04-24T04:41:09;12.85;;;10.05;;
19651;SDS011;9974;52.146;14.668;2023-04-24T04:43:35;14.88;;;9.40;;
19651;SDS011;9974;52.146;14.668;2023-04-24T04:46:01;13.00;;;10.48;;
19651;SDS011;9974;52.146;14.668;2023-04-24T04:48:28;12.73;;;9.82;;
19651;SDS011;9974;52.146;14.668;2023-04-24T04:50:56;11.55;;;9.52;;
19651;SDS011;9974;52.146;14.668;2023-04-24T04:53:22;14.07;;;9.93;;
19651;SDS011;9974;52.146;14.668;2023-04-24T04:55:49;13.55;;;10.32;;
19651;SDS011;9974;52.146;14.668;2023-04-24T04:58:15;11.43;;;9.60;;
19651;SDS011;9974;52.146;14.668;2023-04-24T05:00:41;11.82;;;9.82;;
19651;SDS011;9974;52.146;14.668;2023-04-24T05:03:07;12.15;;;9.30;;
19651;SDS011;9974;52.146;14.668;2023-04-24T05:05:33;11.68;;;9.20;;
19651;SDS011;9974;52.146;14.668;2023-04-24T05:07:59;11.50;;;9.23;;
19651;SDS011;9974;52.146;14.668;2023-04-24T05:10:25;17.33;;;9.90;;
19651;SDS011;9974;52.146;14.668;2023-04-24T05:12:51;11.82;;;9.77;;
19651;SDS011;9974;52.146;14.668;2023-04-24T05:15:17;14.45;;;9.43;;
19651;SDS011;9974;52.146;14.668;2023-04-24T05:17:43;11.18;;;9.50;;
19651;SDS011;9974;52.146;14.668;2023-04-24T05:20:09;13.02;;;9.25;;
19651;SDS011;9974;52.146;14.668;2023-04-24T05:22:35;13.05;;;9.32;;
19651;SDS011;9974;52.146;14.668;2023-04-24T05:25:01;13.15;;;9.88;;
19651;SDS011;9974;52.146;14.668;2023-04-24T05:27:27;15.00;;;9.38;;
19651;SDS011;9974;52.146;14.668;2023-04-24T05:29:53;14.45;;;8.00;;
19651;SDS011;9974;52.146;14.668;2023-04-24T05:32:20;12.80;;;8.48;;
19651;SDS011;9974;52.146;14.668;2023-04-24T05:34:46;13.68;;;9.35;;
19651;SDS011;9974;52.146;14.668;2023-04-24T05:37:12;11.73;;;8.57;;
19651;SDS011;9974;52.146;14.668;2023-04-24T05:39:38;9.57;;;7.57;;
19651;SDS011;9974;52.146;14.668;2023-04-24T05:42:05;11.48;;;7.55;;
19651;SDS011;9974;52.146;14.668;2023-04-24T05:44:32;9.73;;;7.68;;
19651;SDS011;9974;52.146;14.668;2023-04-24T05:46:58;11.68;;;7.38;;
19651;SDS011;9974;52.146;14.668;2023-04-24T05:49:24;11.07;;;7.32;;
19651;SDS011;9974;52.146;14.668;2023-04-24T05:51:50;8.52;;;7.35;;
19651;SDS011;9974;52.146;14.668;2023-04-24T05:54:16;11.85;;;6.43;;
19651;SDS011;9974;52.146;14.668;2023-04-24T05:56:42;10.57;;;6.63;;
19651;SDS011;9974;52.146;14.668;2023-04-24T05:59:08;7.38;;;4.85;;
19651;SDS011;9974;52.146;14.668;2023-04-24T06:01:34;7.50;;;5.30;;
19651;SDS011;9974;52.146;14.668;2023-04-24T06:04:01;7.22;;;4.93;;
19651;SDS011;9974;52.146;14.668;2023-04-24T06:06:27;5.82;;;4.38;;
19651;SDS011;9974;52.146;14.668;2023-04-24T06:08:54;8.15;;;4.63;;
19651;SDS011;9974;52.146;14.668;2023-04-24T06:11:19;7.10;;;4.30;;
19651;SDS011;9974;52.146;14.668;2023-04-24T06:13:45;6.32;;;4.13;;
19651;SDS011;9974;52.146;14.668;2023-04-24T06:16:12;6.65;;;4.03;;
19651;SDS011;9974;52.146;14.668;2023-04-24T06:18:39;6.00;;;3.83;;
19651;SDS011;9974;52.146;14.668;2023-04-24T06:21:04;6.00;;;3.60;;
19651;SDS011;9974;52.146;14.668;2023-04-24T06:23:31;4.13;;;3.13;;
19651;SDS011;9974;52.146;14.668;2023-04-24T06:25:57;6.60;;;3.78;;
19651;SDS011;9974;52.146;14.668;2023-04-24T06:28:24;4.88;;;3.63;;
19651;SDS011;9974;52.146;14.668;2023-04-24T06:30:50;7.97;;;3.63;;
19651;SDS011;9974;52.146;14.668;2023-04-24T06:33:16;4.30;;;3.20;;
19651;SDS011;9974;52.146;14.668;2023-04-24T06:35:42;5.00;;;3.25;;
19651;SDS011;9974;52.146;14.668;2023-04-24T06:38:08;4.60;;;3.03;;
19651;SDS011;9974;52.146;14.668;2023-04-24T06:40:34;4.32;;;2.90;;
19651;SDS011;9974;52.146;14.668;2023-04-24T06:43:00;5.57;;;3.00;;
19651;SDS011;9974;52.146;14.668;2023-04-24T06:45:27;4.45;;;2.67;;
19651;SDS011;9974;52.146;14.668;2023-04-24T06:47:54;6.85;;;3.25;;
19651;SDS011;9974;52.146;14.668;2023-04-24T06:50:20;4.38;;;2.63;;
19651;SDS011;9974;52.146;14.668;2023-04-24T06:52:47;3.72;;;2.47;;
19651;SDS011;9974;52.146;14.668;2023-04-24T06:55:13;5.32;;;2.53;;
19651;SDS011;9974;52.146;14.668;2023-04-24T06:57:41;4.07;;;2.33;;
19651;SDS011;9974;52.146;14.668;2023-04-24T07:00:07;3.42;;;2.35;;
19651;SDS011;9974;52.146;14.668;2023-04-24T07:02:34;3.92;;;2.38;;
19651;SDS011;9974;52.146;14.668;2023-04-24T07:05:00;4.97;;;2.38;;
19651;SDS011;9974;52.146;14.668;2023-04-24T07:07:26;3.50;;;2.35;;
19651;SDS011;9974;52.146;14.668;2023-04-24T07:09:52;3.67;;;2.50;;
19651;SDS011;9974;52.146;14.668;2023-04-24T07:12:19;3.50;;;2.33;;
19651;SDS011;9974;52.146;14.668;2023-04-24T07:14:46;5.13;;;2.20;;
19651;SDS011;9974;52.146;14.668;2023-04-24T07:17:12;15.60;;;3.38;;
19651;SDS011;9974;52.146;14.668;2023-04-24T07:19:39;23.85;;;3.75;;
19651;SDS011;9974;52.146;14.668;2023-04-24T07:22:05;8.63;;;2.72;;
19651;SDS011;9974;52.146;14.668;2023-04-24T07:24:31;5.63;;;2.35;;
19651;SDS011;9974;52.146;14.668;2023-04-24T07:26:57;22.10;;;4.68;;
19651;SDS011;9974;52.146;14.668;2023-04-24T07:29:25;17.70;;;3.25;;
19651;SDS011;9974;52.146;14.668;2023-04-24T07:31:51;30.67;;;4.65;;
19651;SDS011;9974;52.146;14.668;2023-04-24T07:34:18;8.30;;;1.83;;
19651;SDS011;9974;52.146;14.668;2023-04-24T07:36:44;14.50;;;2.05;;
19651;SDS011;9974;52.146;14.668;2023-04-24T07:39:11;4.25;;;1.95;;
19651;SDS011;9974;52.146;14.668;2023-04-24T07:41:37;9.57;;;2.25;;
19651;SDS011;9974;52.146;14.668;2023-04-24T07:44:03;5.20;;;1.90;;
19651;SDS011;9974;52.146;14.668;2023-04-24T07:46:30;3.50;;;1.77;;
19651;SDS011;9974;52.146;14.668;2023-04-24T07:48:56;11.98;;;2.20;;
19651;SDS011;9974;52.146;14.668;2023-04-24T07:51:22;5.07;;;1.48;;
19651;SDS011;9974;52.146;14.668;2023-04-24T07:53:48;8.05;;;1.73;;
19651;SDS011;9974;52.146;14.668;2023-04-24T07:56:14;8.13;;;1.60;;
19651;SDS011;9974;52.146;14.668;2023-04-24T07:58:42;3.53;;;0.90;;
19651;SDS011;9974;52.146;14.668;2023-04-24T08:01:07;5.85;;;1.92;;
19651;SDS011;9974;52.146;14.668;2023-04-24T08:03:33;10.27;;;1.40;;
19651;SDS011;9974;52.146;14.668;2023-04-24T08:05:59;10.18;;;2.40;;
19651;SDS011;9974;52.146;14.668;2023-04-24T08:08:25;5.65;;;1.63;;
19651;SDS011;9974;52.146;14.668;2023-04-24T08:10:51;19.17;;;1.88;;
19651;SDS011;9974;52.146;14.668;2023-04-24T08:13:17;4.45;;;1.42;;
19651;SDS011;9974;52.146;14.668;2023-04-24T08:15:43;2.70;;;0.88;;
19651;SDS011;9974;52.146;14.668;2023-04-24T08:18:09;3.22;;;0.75;;
19651;SDS011;9974;52.146;14.668;2023-04-24T08:20:36;2.72;;;1.00;;
19651;SDS011;9974;52.146;14.668;2023-04-24T08:23:02;6.97;;;1.65;;
19651;SDS011;9974;52.146;14.668;2023-04-24T08:25:28;3.08;;;0.50;;
19651;SDS011;9974;52.146;14.668;2023-04-24T08:27:54;1.33;;;0.70;;
19651;SDS011;9974;52.146;14.668;2023-04-24T08:30:19;1.50;;;0.60;;
19651;SDS011;9974;52.146;14.668;2023-04-24T08:32:46;4.22;;;0.70;;
19651;SDS011;9974;52.146;14.668;2023-04-24T08:35:12;1.42;;;0.68;;
19651;SDS011;9974;52.146;14.668;2023-04-24T08:37:38;6.35;;;0.70;;
19651;SDS011;9974;52.146;14.668;2023-04-24T08:40:05;17.38;;;1.35;;
19651;SDS011;9974;52.146;14.668;2023-04-24T08:42:37;0.95;;;0.65;;
19651;SDS011;9974;52.146;14.668;2023-04-24T08:45:04;1.42;;;0.57;;
19651;SDS011;9974;52.146;14.668;2023-04-24T08:47:31;1.23;;;0.50;;
19651;SDS011;9974;52.146;14.668;2023-04-24T08:49:58;1.00;;;0.60;;
19651;SDS011;9974;52.146;14.668;2023-04-24T08:52:25;0.52;;;0.20;;
19651;SDS011;9974;52.146;14.668;2023-04-24T08:54:53;1.15;;;0.40;;
19651;SDS011;9974;52.146;14.668;2023-04-24T08:57:19;0.95;;;0.50;;
19651;SDS011;9974;52.146;14.668;2023-04-24T08:59:45;0.82;;;0.35;;
19651;SDS011;9974;52.146;14.668;2023-04-24T09:02:12;0.95;;;0.40;;
19651;SDS011;9974;52.146;14.668;2023-04-24T09:04:40;1.88;;;0.40;;
19651;SDS011;9974;52.146;14.668;2023-04-24T09:07:06;0.47;;;0.47;;
19651;SDS011;9974;52.146;14.668;2023-04-24T09:09:34;1.85;;;0.65;;
19651;SDS011;9974;52.146;14.668;2023-04-24T09:12:00;1.75;;;0.50;;
19651;SDS011;9974;52.146;14.668;2023-04-24T09:14:27;4.35;;;0.60;;
19651;SDS011;9974;52.146;14.668;2023-04-24T09:16:53;0.65;;;0.40;;
19651;SDS011;9974;52.146;14.668;2023-04-24T09:19:18;1.25;;;0.43;;
19651;SDS011;9974;52.146;14.668;2023-04-24T09:21:46;2.05;;;0.60;;
19651;SDS011;9974;52.146;14.668;2023-04-24T09:24:16;1.85;;;0.63;;
19651;SDS011;9974;52.146;14.668;2023-04-24T09:26:43;1.38;;;0.57;;
19651;SDS011;9974;52.146;14.668;2023-04-24T09:29:16;3.40;;;0.70;;
19651;SDS011;9974;52.146;14.668;2023-04-24T09:31:42;0.98;;;0.40;;
19651;SDS011;9974;52.146;14.668;2023-04-24T09:34:09;1.25;;;0.60;;
19651;SDS011;9974;52.146;14.668;2023-04-24T09:36:39;0.30;;;0.30;;
19651;SDS011;9974;52.146;14.668;2023-04-24T09:39:08;1.40;;;0.70;;
19651;SDS011;9974;52.146;14.668;2023-04-24T09:41:43;2.97;;;0.52;;
19651;SDS011;9974;52.146;14.668;2023-04-24T09:44:11;0.40;;;0.40;;
19651;SDS011;9974;52.146;14.668;2023-04-24T09:46:39;1.08;;;0.47;;
19651;SDS011;9974;52.146;14.668;2023-04-24T09:49:10;1.23;;;0.45;;
19651;SDS011;9974;52.146;14.668;2023-04-24T09:51:41;2.10;;;0.50;;
19651;SDS011;9974;52.146;14.668;2023-04-24T09:54:14;2.33;;;0.60;;
19651;SDS011;9974;52.146;14.668;2023-04-24T09:56:46;3.47;;;0.50;;
19651;SDS011;9974;52.146;14.668;2023-04-24T09:59:14;0.40;;;0.40;;
19651;SDS011;9974;52.146;14.668;2023-04-24T10:01:41;0.70;;;0.30;;
19651;SDS011;9974;52.146;14.668;2023-04-24T10:04:20;1.08;;;0.50;;
19651;SDS011;9974;52.146;14.668;2023-04-24T10:06:48;0.40;;;0.38;;
19651;SDS011;9974;52.146;14.668;2023-04-24T10:09:16;0.50;;;0.50;;
19651;SDS011;9974;52.146;14.668;2023-04-24T10:11:44;1.33;;;0.70;;
19651;SDS011;9974;52.146;14.668;2023-04-24T10:14:12;0.40;;;0.40;;
19651;SDS011;9974;52.146;14.668;2023-04-24T10:16:44;0.65;;;0.47;;
19651;SDS011;9974;52.146;14.668;2023-04-24T10:19:11;1.92;;;0.80;;
19651;SDS011;9974;52.146;14.668;2023-04-24T10:21:39;1.55;;;0.70;;
19651;SDS011;9974;52.146;14.668;2023-04-24T10:24:12;0.95;;;0.60;;
19651;SDS011;9974;52.146;14.668;2023-04-24T10:26:40;0.90;;;0.50;;
19651;SDS011;9974;52.146;14.668;2023-04-24T10:29:06;1.20;;;0.50;;
19651;SDS011;9974;52.146;14.668;2023-04-24T10:31:37;1.00;;;0.50;;
19651;SDS011;9974;52.146;14.668;2023-04-24T10:34:04;0.55;;;0.50;;
19651;SDS011;9974;52.146;14.668;2023-04-24T10:36:31;1.77;;;0.77;;
19651;SDS011;9974;52.146;14.668;2023-04-24T10:38:59;3.60;;;0.82;;
19651;SDS011;9974;52.146;14.668;2023-04-24T10:41:27;1.58;;;0.60;;
19651;SDS011;9974;52.146;14.668;2023-04-24T10:44:06;1.90;;;0.50;;
19651;SDS011;9974;52.146;14.668;2023-04-24T10:46:33;4.00;;;0.60;;
19651;SDS011;9974;52.146;14.668;2023-04-24T10:48:59;4.47;;;1.23;;
19651;SDS011;9974;52.146;14.668;2023-04-24T10:51:52;0.73;;;0.50;;
19651;SDS011;9974;52.146;14.668;2023-04-24T10:54:23;1.92;;;0.85;;
19651;SDS011;9974;52.146;14.668;2023-04-24T10:56:53;1.45;;;0.52;;
19651;SDS011;9974;52.146;14.668;2023-04-24T10:59:38;1.88;;;0.57;;
19651;SDS011;9974;52.146;14.668;2023-04-24T11:02:03;0.93;;;0.57;;
19651;SDS011;9974;52.146;14.668;2023-04-24T11:04:33;1.95;;;0.73;;
19651;SDS011;9974;52.146;14.668;2023-04-24T11:07:02;8.07;;;0.50;;
19651;SDS011;9974;52.146;14.668;2023-04-24T11:09:32;0.55;;;0.50;;
19651;SDS011;9974;52.146;14.668;2023-04-24T11:12:03;2.83;;;0.65;;
19651;SDS011;9974;52.146;14.668;2023-04-24T11:17:34;1.58;;;0.60;;
19651;SDS011;9974;52.146;14.668;2023-04-24T11:20:06;0.75;;;0.57;;
19651;SDS011;9974;52.146;14.668;2023-04-24T11:22:35;4.32;;;0.68;;
19651;SDS011;9974;52.146;14.668;2023-04-24T11:25:02;1.35;;;0.60;;
19651;SDS011;9974;52.146;14.668;2023-04-24T11:27:30;2.80;;;0.57;;
19651;SDS011;9974;52.146;14.668;2023-04-24T11:30:01;0.30;;;0.30;;
19651;SDS011;9974;52.146;14.668;2023-04-24T11:32:38;0.63;;;0.40;;
19651;SDS011;9974;52.146;14.668;2023-04-24T11:35:15;1.48;;;0.52;;
19651;SDS011;9974;52.146;14.668;2023-04-24T11:37:43;1.08;;;0.52;;
19651;SDS011;9974;52.146;14.668;2023-04-24T11:40:17;1.58;;;0.60;;
19651;SDS011;9974;52.146;14.668;2023-04-24T11:42:48;1.05;;;0.43;;
19651;SDS011;9974;52.146;14.668;2023-04-24T11:45:21;2.03;;;0.50;;
19651;SDS011;9974;52.146;14.668;2023-04-24T11:47:50;1.85;;;0.52;;
19651;SDS011;9974;52.146;14.668;2023-04-24T11:50:17;3.33;;;0.38;;
19651;SDS011;9974;52.146;14.668;2023-04-24T11:52:46;1.38;;;0.60;;
19651;SDS011;9974;52.146;14.668;2023-04-24T11:57:42;1.55;;;0.40;;
19651;SDS011;9974;52.146;14.668;2023-04-24T12:00:15;1.58;;;0.55;;
19651;SDS011;9974;52.146;14.668;2023-04-24T12:02:43;0.77;;;0.57;;
19651;SDS011;9974;52.146;14.668;2023-04-24T12:05:12;1.73;;;0.45;;
19651;SDS011;9974;52.146;14.668;2023-04-24T12:07:55;0.70;;;0.40;;
19651;SDS011;9974;52.146;14.668;2023-04-24T12:10:21;1.38;;;0.50;;
19651;SDS011;9974;52.146;14.668;2023-04-24T12:12:51;1.83;;;0.50;;
19651;SDS011;9974;52.146;14.668;2023-04-24T12:15:19;1.63;;;0.65;;
19651;SDS011;9974;52.146;14.668;2023-04-24T12:17:45;2.35;;;0.60;;
19651;SDS011;9974;52.146;14.668;2023-04-24T12:20:11;0.77;;;0.57;;
19651;SDS011;9974;52.146;14.668;2023-04-24T12:25:21;1.13;;;0.50;;
19651;SDS011;9974;52.146;14.668;2023-04-24T12:27:53;1.13;;;0.47;;
19651;SDS011;9974;52.146;14.668;2023-04-24T12:30:20;0.93;;;0.45;;
19651;SDS011;9974;52.146;14.668;2023-04-24T12:32:48;0.45;;;0.38;;
19651;SDS011;9974;52.146;14.668;2023-04-24T12:35:24;1.15;;;0.55;;
19651;SDS011;9974;52.146;14.668;2023-04-24T12:37:52;1.00;;;0.60;;
19651;SDS011;9974;52.146;14.668;2023-04-24T12:40:19;6.40;;;0.50;;
19651;SDS011;9974;52.146;14.668;2023-04-24T12:42:49;0.43;;;0.40;;
19651;SDS011;9974;52.146;14.668;2023-04-24T12:45:16;1.63;;;0.52;;
19651;SDS011;9974;52.146;14.668;2023-04-24T12:47:44;4.00;;;0.60;;
19651;SDS011;9974;52.146;14.668;2023-04-24T12:50:12;6.38;;;3.05;;
19651;SDS011;9974;52.146;14.668;2023-04-24T12:52:39;4.15;;;1.63;;
19651;SDS011;9974;52.146;14.668;2023-04-24T12:55:06;6.07;;;1.73;;
19651;SDS011;9974;52.146;14.668;2023-04-24T12:57:33;1.75;;;0.80;;
19651;SDS011;9974;52.146;14.668;2023-04-24T13:00:00;5.18;;;0.40;;
19651;SDS011;9974;52.146;14.668;2023-04-24T13:02:27;1.08;;;0.50;;
19651;SDS011;9974;52.146;14.668;2023-04-24T13:04:56;1.00;;;0.40;;
19651;SDS011;9974;52.146;14.668;2023-04-24T13:07:23;0.60;;;0.55;;
19651;SDS011;9974;52.146;14.668;2023-04-24T13:09:50;1.52;;;0.63;;
19651;SDS011;9974;52.146;14.668;2023-04-24T13:12:16;1.33;;;0.50;;
19651;SDS011;9974;52.146;14.668;2023-04-24T13:14:43;2.70;;;0.75;;
19651;SDS011;9974;52.146;14.668;2023-04-24T13:17:10;1.63;;;0.70;;
19651;SDS011;9974;52.146;14.668;2023-04-24T13:19:37;2.15;;;0.75;;
19651;SDS011;9974;52.146;14.668;2023-04-24T13:22:05;2.63;;;0.47;;
19651;SDS011;9974;52.146;14.668;2023-04-24T13:24:32;3.53;;;0.55;;
19651;SDS011;9974;52.146;14.668;2023-04-24T13:26:58;2.10;;;0.60;;
19651;SDS011;9974;52.146;14.668;2023-04-24T13:29:25;9.35;;;3.42;;
19651;SDS011;9974;52.146;14.668;2023-04-24T13:31:52;6.82;;;2.47;;
19651;SDS011;9974;52.146;14.668;2023-04-24T13:34:21;5.25;;;1.90;;
19651;SDS011;9974;52.146;14.668;2023-04-24T13:36:53;3.60;;;1.40;;
19651;SDS011;9974;52.146;14.668;2023-04-24T13:39:21;3.22;;;0.95;;
19651;SDS011;9974;52.146;14.668;2023-04-24T13:41:48;2.42;;;0.50;;
19651;SDS011;9974;52.146;14.668;2023-04-24T13:44:14;1.08;;;0.68;;
19651;SDS011;9974;52.146;14.668;2023-04-24T13:46:42;1.95;;;0.45;;
19651;SDS011;9974;52.146;14.668;2023-04-24T13:49:09;1.25;;;0.88;;
19651;SDS011;9974;52.146;14.668;2023-04-24T13:51:36;0.57;;;0.57;;
19651;SDS011;9974;52.146;14.668;2023-04-24T13:54:02;2.15;;;0.60;;
19651;SDS011;9974;52.146;14.668;2023-04-24T13:56:28;1.23;;;0.50;;
19651;SDS011;9974;52.146;14.668;2023-04-24T13:58:54;1.00;;;0.40;;
19651;SDS011;9974;52.146;14.668;2023-04-24T14:01:20;1.27;;;0.70;;
19651;SDS011;9974;52.146;14.668;2023-04-24T14:03:50;1.63;;;0.93;;
19651;SDS011;9974;52.146;14.668;2023-04-24T14:06:20;1.55;;;0.93;;
19651;SDS011;9974;52.146;14.668;2023-04-24T14:08:46;3.30;;;0.57;;
19651;SDS011;9974;52.146;14.668;2023-04-24T14:11:12;0.40;;;0.40;;
19651;SDS011;9974;52.146;14.668;2023-04-24T14:13:39;3.08;;;0.77;;
19651;SDS011;9974;52.146;14.668;2023-04-24T14:16:06;4.68;;;0.70;;
19651;SDS011;9974;52.146;14.668;2023-04-24T14:18:32;0.73;;;0.60;;
19651;SDS011;9974;52.146;14.668;2023-04-24T14:20:58;1.00;;;0.70;;
19651;SDS011;9974;52.146;14.668;2023-04-24T14:23:26;1.85;;;1.00;;
19651;SDS011;9974;52.146;14.668;2023-04-24T14:25:52;1.50;;;0.90;;
19651;SDS011;9974;52.146;14.668;2023-04-24T14:28:18;2.13;;;0.47;;
19651;SDS011;9974;52.146;14.668;2023-04-24T14:30:45;3.28;;;1.10;;
19651;SDS011;9974;52.146;14.668;2023-04-24T14:33:12;3.80;;;1.70;;
19651;SDS011;9974;52.146;14.668;2023-04-24T14:35:38;1.40;;;0.52;;
19651;SDS011;9974;52.146;14.668;2023-04-24T14:38:05;1.25;;;0.60;;
19651;SDS011;9974;52.146;14.668;2023-04-24T14:40:31;1.40;;;0.50;;
19651;SDS011;9974;52.146;14.668;2023-04-24T14:42:57;2.20;;;1.40;;
19651;SDS011;9974;52.146;14.668;2023-04-24T14:45:24;3.45;;;0.77;;
19651;SDS011;9974;52.146;14.668;2023-04-24T14:47:50;2.90;;;0.90;;
19651;SDS011;9974;52.146;14.668;2023-04-24T14:50:16;1.25;;;0.60;;